***What Are You Smoking, October 2021?***

Log in

SmokingPipes.com Updates

18 Fresh Brigham Pipes
24 Fresh Chacom Pipes
30 Fresh Eltang Basic Pipes
18 Fresh AKB Meerschaum Pipes
12 Fresh Neerup Pipes

PipesMagazine Approved Sponsor

PipesMagazine Approved Sponsor

PipesMagazine Approved Sponsor

PipesMagazine Approved Sponsor

PipesMagazine Approved Sponsor

jiminks

Preferred Member
Aug 31, 2012
47,812
240,003
Starting this thread a little early, and am smoking year 2018 Esoterica Dunbar in a smooth straight, dark brown early 1960s Lane era Charatan Selected 43 Dublin with a black vulcanite double comfort saddle stem. This pipe was formerly owned by actor William Conrad.
Conrad-Dublin copy.jpg
 

cwpiperman

Senior Member
Jun 15, 2018
311
1,096
Currently smoking one of several new arrivals, Cult Blood Red Moon in a MM Legend. Iced Oat Milk is my drink. Relaxing, watching some anime (Bleach).

Weather for Weather Nerds and Pilots: Severe Clear!

010553Z AUTO 00000KT 10SM CLR 13/11 A3020 RMK AO2
 

cwpiperman

Senior Member
Jun 15, 2018
311
1,096
Second bowl, McBaren HH Rustica in a KIKO Leather Wrapped briar with Meerschaum insert.

Salted caramel hot cocoa is my drink. This is a strong but tasty blend. Quite unique from first light.

Weather for Weather Nerds/Pilots

010753Z AUTO 00000KT 10SM CLR 13/11 A3020 RMK AO2
 

PipeLoverInPA

Senior Member
Nov 14, 2020
319
5,788
Good morning gentlemen.
It's that time of month and fall is here. let the festivities begin.
2012 Stonehaven in a J.T. Cooke.

20211001_101955.jpg20211001_103211.jpg